sensor_id;sensor_type;location;lat;lon;timestamp;pressure;altitude;pressure_sealevel;temperature;humidity
72798;BME280;61084;55.816;37.036;2022-11-03T00:01:53;99472.41;;;1.12;67.51
72798;BME280;61084;55.816;37.036;2022-11-03T00:04:20;99475.03;;;1.11;67.76
72798;BME280;61084;55.816;37.036;2022-11-03T00:06:51;99468.09;;;1.13;67.66
72798;BME280;61084;55.816;37.036;2022-11-03T00:09:19;99472.34;;;1.15;67.65
72798;BME280;61084;55.816;37.036;2022-11-03T00:11:45;99474.09;;;1.15;67.71
72798;BME280;61084;55.816;37.036;2022-11-03T00:14:12;99474.94;;;1.15;67.44
72798;BME280;61084;55.816;37.036;2022-11-03T00:16:42;99484.53;;;1.09;67.37
72798;BME280;61084;55.816;37.036;2022-11-03T00:19:09;99481.19;;;1.02;67.28
72798;BME280;61084;55.816;37.036;2022-11-03T00:21:35;99485.47;;;1.00;67.45
72798;BME280;61084;55.816;37.036;2022-11-03T00:24:01;99480.34;;;0.99;67.64
72798;BME280;61084;55.816;37.036;2022-11-03T00:26:30;99493.22;;;1.03;67.69
72798;BME280;61084;55.816;37.036;2022-11-03T00:28:58;99500.16;;;1.00;67.33
72798;BME280;61084;55.816;37.036;2022-11-03T00:31:32;99511.41;;;0.94;67.55
72798;BME280;61084;55.816;37.036;2022-11-03T00:33:59;99503.75;;;0.88;67.54
72798;BME280;61084;55.816;37.036;2022-11-03T00:36:33;99509.00;;;0.79;67.38
72798;BME280;61084;55.816;37.036;2022-11-03T00:38:59;99506.50;;;0.76;67.60
72798;BME280;61084;55.816;37.036;2022-11-03T00:41:25;99500.44;;;0.77;67.48
72798;BME280;61084;55.816;37.036;2022-11-03T00:43:52;99502.94;;;0.85;67.95
72798;BME280;61084;55.816;37.036;2022-11-03T00:46:19;99501.13;;;0.90;67.51
72798;BME280;61084;55.816;37.036;2022-11-03T00:48:45;99507.03;;;0.99;67.43
72798;BME280;61084;55.816;37.036;2022-11-03T00:51:13;99501.88;;;0.99;67.46
72798;BME280;61084;55.816;37.036;2022-11-03T00:56:10;99498.38;;;1.03;67.65
72798;BME280;61084;55.816;37.036;2022-11-03T00:58:36;99491.50;;;1.02;67.69
72798;BME280;61084;55.816;37.036;2022-11-03T01:03:34;99488.06;;;1.00;67.22
72798;BME280;61084;55.816;37.036;2022-11-03T01:06:01;99496.78;;;0.93;67.72
72798;BME280;61084;55.816;37.036;2022-11-03T01:08:45;99496.72;;;0.96;67.82
72798;BME280;61084;55.816;37.036;2022-11-03T01:11:13;99492.56;;;0.86;67.45
72798;BME280;61084;55.816;37.036;2022-11-03T01:13:58;99499.50;;;0.84;67.98
72798;BME280;61084;55.816;37.036;2022-11-03T01:16:24;99495.19;;;0.83;67.74
72798;BME280;61084;55.816;37.036;2022-11-03T01:18:50;99499.50;;;0.81;67.48
72798;BME280;61084;55.816;37.036;2022-11-03T01:21:17;99501.25;;;0.81;67.61
72798;BME280;61084;55.816;37.036;2022-11-03T01:23:43;99504.69;;;0.83;67.85
72798;BME280;61084;55.816;37.036;2022-11-03T01:26:10;99517.59;;;0.81;67.54
72798;BME280;61084;55.816;37.036;2022-11-03T01:28:37;99517.56;;;0.84;67.53
72798;BME280;61084;55.816;37.036;2022-11-03T01:31:24;99513.22;;;0.88;67.85
72798;BME280;61084;55.816;37.036;2022-11-03T01:33:53;99518.34;;;0.91;68.10
72798;BME280;61084;55.816;37.036;2022-11-03T01:36:20;99514.84;;;0.95;67.66
72798;BME280;61084;55.816;37.036;2022-11-03T01:38:45;99520.00;;;0.96;67.92
72798;BME280;61084;55.816;37.036;2022-11-03T01:41:14;99521.75;;;0.94;67.82
72798;BME280;61084;55.816;37.036;2022-11-03T01:43:40;99517.53;;;0.89;67.51
72798;BME280;61084;55.816;37.036;2022-11-03T01:48:39;99514.03;;;0.93;67.61
72798;BME280;61084;55.816;37.036;2022-11-03T01:51:06;99518.28;;;0.94;67.67
72798;BME280;61084;55.816;37.036;2022-11-03T01:53:33;99515.78;;;0.88;67.30
72798;BME280;61084;55.816;37.036;2022-11-03T01:55:59;99529.63;;;0.84;67.60
72798;BME280;61084;55.816;37.036;2022-11-03T01:58:29;99520.09;;;0.87;67.83
72798;BME280;61084;55.816;37.036;2022-11-03T02:00:57;99521.03;;;0.83;67.46
72798;BME280;61084;55.816;37.036;2022-11-03T02:03:26;99521.03;;;0.83;67.61
72798;BME280;61084;55.816;37.036;2022-11-03T02:05:53;99518.47;;;0.82;67.49
72798;BME280;61084;55.816;37.036;2022-11-03T02:08:21;99521.03;;;0.82;68.11
72798;BME280;61084;55.816;37.036;2022-11-03T02:10:50;99527.06;;;0.82;67.96
72798;BME280;61084;55.816;37.036;2022-11-03T02:13:25;99531.41;;;0.78;67.61
72798;BME280;61084;55.816;37.036;2022-11-03T02:16:11;99527.06;;;0.82;67.48
72798;BME280;61084;55.816;37.036;2022-11-03T02:18:38;99523.72;;;0.72;67.44
72798;BME280;61084;55.816;37.036;2022-11-03T02:24:49;99517.84;;;0.63;67.43
72798;BME280;61084;55.816;37.036;2022-11-03T02:27:17;99518.78;;;0.53;67.61
72798;BME280;61084;55.816;37.036;2022-11-03T02:29:43;99517.13;;;0.49;67.93
72798;BME280;61084;55.816;37.036;2022-11-03T02:32:41;99529.13;;;0.53;68.04
72798;BME280;61084;55.816;37.036;2022-11-03T02:35:21;99523.94;;;0.56;68.16
72798;BME280;61084;55.816;37.036;2022-11-03T02:37:53;99533.41;;;0.55;68.09
72798;BME280;61084;55.816;37.036;2022-11-03T02:40:35;99531.72;;;0.54;67.64
72798;BME280;61084;55.816;37.036;2022-11-03T02:43:04;99528.22;;;0.55;68.18
72798;BME280;61084;55.816;37.036;2022-11-03T02:45:30;99524.78;;;0.56;67.83
72798;BME280;61084;55.816;37.036;2022-11-03T02:47:58;99526.47;;;0.59;67.75
72798;BME280;61084;55.816;37.036;2022-11-03T02:50:27;99529.97;;;0.56;68.09
72798;BME280;61084;55.816;37.036;2022-11-03T02:52:53;99520.50;;;0.55;67.67
72798;BME280;61084;55.816;37.036;2022-11-03T02:55:28;99519.63;;;0.56;68.05
72798;BME280;61084;55.816;37.036;2022-11-03T03:01:08;99511.81;;;0.59;68.11
72798;BME280;61084;55.816;37.036;2022-11-03T03:03:55;99504.13;;;0.56;67.98
72798;BME280;61084;55.816;37.036;2022-11-03T03:09:06;99497.97;;;0.68;68.38
72798;BME280;61084;55.816;37.036;2022-11-03T03:11:35;99505.72;;;0.69;67.91
72798;BME280;61084;55.816;37.036;2022-11-03T03:14:36;99506.59;;;0.67;68.11
72798;BME280;61084;55.816;37.036;2022-11-03T03:22:41;99510.25;;;0.49;67.79
72798;BME280;61084;55.816;37.036;2022-11-03T03:25:37;99515.41;;;0.49;68.01
72798;BME280;61084;55.816;37.036;2022-11-03T03:28:11;99515.34;;;0.52;68.12
72798;BME280;61084;55.816;37.036;2022-11-03T03:30:39;99510.16;;;0.55;67.66
72798;BME280;61084;55.816;37.036;2022-11-03T03:33:07;99516.13;;;0.60;68.08
72798;BME280;61084;55.816;37.036;2022-11-03T03:35:34;99522.09;;;0.64;67.96
72798;BME280;61084;55.816;37.036;2022-11-03T03:38:05;99524.72;;;0.61;67.89
72798;BME280;61084;55.816;37.036;2022-11-03T03:40:38;99515.25;;;0.61;68.25
72798;BME280;61084;55.816;37.036;2022-11-03T03:43:07;99515.31;;;0.58;67.98
72798;BME280;61084;55.816;37.036;2022-11-03T03:45:35;99520.50;;;0.54;68.04
72798;BME280;61084;55.816;37.036;2022-11-03T03:48:04;99515.34;;;0.52;68.08
72798;BME280;61084;55.816;37.036;2022-11-03T03:50:34;99517.06;;;0.56;67.97
72798;BME280;61084;55.816;37.036;2022-11-03T03:53:04;99525.59;;;0.60;68.01
72798;BME280;61084;55.816;37.036;2022-11-03T03:55:38;99512.66;;;0.63;67.93
72798;BME280;61084;55.816;37.036;2022-11-03T03:58:05;99516.09;;;0.65;68.23
72798;BME280;61084;55.816;37.036;2022-11-03T04:00:31;99509.13;;;0.70;68.12
72798;BME280;61084;55.816;37.036;2022-11-03T04:02:57;99520.28;;;0.72;67.94
72798;BME280;61084;55.816;37.036;2022-11-03T04:05:24;99522.03;;;0.70;67.92
72798;BME280;61084;55.816;37.036;2022-11-03T04:07:50;99521.22;;;0.66;67.94
72798;BME280;61084;55.816;37.036;2022-11-03T04:10:18;99520.41;;;0.63;68.09
72798;BME280;61084;55.816;37.036;2022-11-03T04:12:44;99523.00;;;0.63;67.89
72798;BME280;61084;55.816;37.036;2022-11-03T04:15:30;99522.16;;;0.59;67.46
72798;BME280;61084;55.816;37.036;2022-11-03T04:18:15;99525.63;;;0.58;67.98
72798;BME280;61084;55.816;37.036;2022-11-03T04:20:59;99528.22;;;0.58;67.67
72798;BME280;61084;55.816;37.036;2022-11-03T04:23:44;99537.00;;;0.39;68.43
72798;BME280;61084;55.816;37.036;2022-11-03T04:26:14;99533.59;;;0.36;68.23
72798;BME280;61084;55.816;37.036;2022-11-03T04:28:41;99525.03;;;0.31;68.46
72798;BME280;61084;55.816;37.036;2022-11-03T04:31:15;99530.28;;;0.23;68.36
72798;BME280;61084;55.816;37.036;2022-11-03T04:33:42;99526.91;;;0.18;68.14
72798;BME280;61084;55.816;37.036;2022-11-03T04:38:39;99517.44;;;0.16;68.34
72798;BME280;61084;55.816;37.036;2022-11-03T04:41:12;99515.72;;;0.19;68.81
72798;BME280;61084;55.816;37.036;2022-11-03T04:43:39;99521.69;;;0.26;68.28
72798;BME280;61084;55.816;37.036;2022-11-03T04:46:09;99524.25;;;0.26;68.26
72798;BME280;61084;55.816;37.036;2022-11-03T04:48:35;99530.28;;;0.23;68.39
72798;BME280;61084;55.816;37.036;2022-11-03T04:51:12;99532.09;;;0.15;68.33
72798;BME280;61084;55.816;37.036;2022-11-03T04:53:39;99533.84;;;0.12;68.94
72798;BME280;61084;55.816;37.036;2022-11-03T04:56:14;99529.56;;;0.08;68.54
72798;BME280;61084;55.816;37.036;2022-11-03T04:58:41;99531.28;;;0.07;68.30
72798;BME280;61084;55.816;37.036;2022-11-03T05:01:11;99530.50;;;0.00;68.77
72798;BME280;61084;55.816;37.036;2022-11-03T05:03:40;99527.91;;;0.00;68.73
72798;BME280;61084;55.816;37.036;2022-11-03T05:08:40;99540.03;;;-0.05;68.78
72798;BME280;61084;55.816;37.036;2022-11-03T05:11:18;99541.72;;;-0.04;68.50
72798;BME280;61084;55.816;37.036;2022-11-03T05:13:45;99545.13;;;-0.02;68.70
72798;BME280;61084;55.816;37.036;2022-11-03T05:16:11;99549.50;;;-0.07;68.73
72798;BME280;61084;55.816;37.036;2022-11-03T05:18:39;99550.38;;;-0.09;68.63
72798;BME280;61084;55.816;37.036;2022-11-03T05:21:08;99546.94;;;-0.10;68.59
72798;BME280;61084;55.816;37.036;2022-11-03T05:23:47;99552.06;;;-0.07;68.47
72798;BME280;61084;55.816;37.036;2022-11-03T05:26:19;99546.91;;;-0.05;68.97
72798;BME280;61084;55.816;37.036;2022-11-03T05:28:57;99547.78;;;-0.09;68.91
72798;BME280;61084;55.816;37.036;2022-11-03T05:31:27;99549.50;;;-0.07;68.94
72798;BME280;61084;55.816;37.036;2022-11-03T05:34:21;99551.19;;;-0.09;68.84
72798;BME280;61084;55.816;37.036;2022-11-03T05:36:51;99558.97;;;-0.10;68.31
72798;BME280;61084;55.816;37.036;2022-11-03T05:41:45;99558.16;;;-0.17;68.96
72798;BME280;61084;55.816;37.036;2022-11-03T05:44:28;99560.78;;;-0.20;69.00
72798;BME280;61084;55.816;37.036;2022-11-03T05:46:58;99560.81;;;-0.30;68.29
72798;BME280;61084;55.816;37.036;2022-11-03T05:49:26;99568.59;;;-0.35;68.51
72798;BME280;61084;55.816;37.036;2022-11-03T05:51:52;99578.97;;;-0.42;68.26
72798;BME280;61084;55.816;37.036;2022-11-03T05:54:31;99574.69;;;-0.48;68.94
72798;BME280;61084;55.816;37.036;2022-11-03T05:57:00;99569.50;;;-0.40;69.38
72798;BME280;61084;55.816;37.036;2022-11-03T05:59:27;99567.72;;;-0.32;69.11
72798;BME280;61084;55.816;37.036;2022-11-03T06:01:58;99571.09;;;-0.26;68.90
72798;BME280;61084;55.816;37.036;2022-11-03T06:04:31;99571.13;;;-0.24;68.96
72798;BME280;61084;55.816;37.036;2022-11-03T06:07:04;99561.63;;;-0.21;69.10
72798;BME280;61084;55.816;37.036;2022-11-03T06:09:35;99571.00;;;-0.12;69.08
72798;BME280;61084;55.816;37.036;2022-11-03T06:12:04;99565.78;;;-0.03;69.18
72798;BME280;61084;55.816;37.036;2022-11-03T06:14:31;99564.00;;;0.05;69.07
72798;BME280;61084;55.816;37.036;2022-11-03T06:17:04;99570.00;;;0.07;69.06
72798;BME280;61084;55.816;37.036;2022-11-03T06:19:35;99565.72;;;0.03;69.17
72798;BME280;61084;55.816;37.036;2022-11-03T06:24:39;99573.44;;;0.11;69.05
72798;BME280;61084;55.816;37.036;2022-11-03T06:27:10;99577.69;;;0.12;68.96
72798;BME280;61084;55.816;37.036;2022-11-03T06:29:37;99570.00;;;0.09;68.70
72798;BME280;61084;55.816;37.036;2022-11-03T06:32:03;99569.16;;;0.08;68.64
72798;BME280;61084;55.816;37.036;2022-11-03T06:34:42;99572.56;;;0.10;69.12
72798;BME280;61084;55.816;37.036;2022-11-03T06:39:48;99573.38;;;0.14;68.62
72798;BME280;61084;55.816;37.036;2022-11-03T06:42:19;99575.16;;;0.09;68.92
72798;BME280;61084;55.816;37.036;2022-11-03T06:44:47;99576.91;;;0.04;68.81
72798;BME280;61084;55.816;37.036;2022-11-03T06:47:25;99581.16;;;0.09;69.04
72798;BME280;61084;55.816;37.036;2022-11-03T06:50:16;99575.16;;;0.09;68.56
72798;BME280;61084;55.816;37.036;2022-11-03T06:52:46;99576.94;;;-0.01;68.39
72798;BME280;61084;55.816;37.036;2022-11-03T06:55:29;99580.41;;;-0.04;68.54
72798;BME280;61084;55.816;37.036;2022-11-03T07:00:51;99593.34;;;-0.08;68.81
72798;BME280;61084;55.816;37.036;2022-11-03T07:03:28;99596.75;;;-0.06;69.08
72798;BME280;61084;55.816;37.036;2022-11-03T07:06:10;99592.44;;;-0.01;68.80
72798;BME280;61084;55.816;37.036;2022-11-03T07:11:17;99601.00;;;0.01;68.92
72798;BME280;61084;55.816;37.036;2022-11-03T07:13:45;99598.41;;;0.03;68.91
72798;BME280;61084;55.816;37.036;2022-11-03T07:16:16;99598.44;;;-0.01;68.61
72798;BME280;61084;55.816;37.036;2022-11-03T07:18:44;99597.59;;;-0.01;68.89
72798;BME280;61084;55.816;37.036;2022-11-03T07:21:28;99604.53;;;-0.09;68.68
72798;BME280;61084;55.816;37.036;2022-11-03T07:23:57;99603.72;;;-0.16;69.22
72798;BME280;61084;55.816;37.036;2022-11-03T07:26:25;99601.16;;;-0.19;68.66
72798;BME280;61084;55.816;37.036;2022-11-03T07:28:52;99605.50;;;-0.22;68.89
72798;BME280;61084;55.816;37.036;2022-11-03T07:31:21;99601.22;;;-0.28;68.88
72798;BME280;61084;55.816;37.036;2022-11-03T07:33:48;99595.16;;;-0.21;68.97
72798;BME280;61084;55.816;37.036;2022-11-03T07:36:18;99596.78;;;-0.11;68.91
72798;BME280;61084;55.816;37.036;2022-11-03T07:38:49;99599.38;;;-0.11;68.85
72798;BME280;61084;55.816;37.036;2022-11-03T07:41:21;99596.78;;;-0.05;68.88
72798;BME280;61084;55.816;37.036;2022-11-03T07:44:13;99598.44;;;-0.02;69.05
72798;BME280;61084;55.816;37.036;2022-11-03T07:46:42;99598.41;;;0.04;68.86
72798;BME280;61084;55.816;37.036;2022-11-03T07:49:08;99606.97;;;0.11;68.74
72798;BME280;61084;55.816;37.036;2022-11-03T07:51:37;99599.16;;;0.18;69.05
72798;BME280;61084;55.816;37.036;2022-11-03T07:56:38;99604.28;;;0.20;68.29
72798;BME280;61084;55.816;37.036;2022-11-03T08:01:46;99604.50;;;-0.03;68.20
72798;BME280;61084;55.816;37.036;2022-11-03T08:04:17;99605.38;;;-0.09;68.32
72798;BME280;61084;55.816;37.036;2022-11-03T08:06:44;99604.53;;;-0.09;68.35
72798;BME280;61084;55.816;37.036;2022-11-03T08:09:10;99602.84;;;-0.15;68.36
72798;BME280;61084;55.816;37.036;2022-11-03T08:11:37;99600.31;;;-0.24;68.43
72798;BME280;61084;55.816;37.036;2022-11-03T08:14:02;99602.06;;;-0.26;68.54
72798;BME280;61084;55.816;37.036;2022-11-03T08:16:28;99601.19;;;-0.25;68.89
72798;BME280;61084;55.816;37.036;2022-11-03T08:18:54;99599.50;;;-0.24;68.77
72798;BME280;61084;55.816;37.036;2022-11-03T08:21:20;99597.75;;;-0.22;68.35
72798;BME280;61084;55.816;37.036;2022-11-03T08:23:46;99590.84;;;-0.22;68.84
72798;BME280;61084;55.816;37.036;2022-11-03T08:26:11;99586.53;;;-0.17;68.78
72798;BME280;61084;55.816;37.036;2022-11-03T08:28:37;99595.16;;;-0.18;68.97
72798;BME280;61084;55.816;37.036;2022-11-03T08:31:03;99595.13;;;-0.13;68.86
72798;BME280;61084;55.816;37.036;2022-11-03T08:33:31;99594.22;;;-0.11;68.68
72798;BME280;61084;55.816;37.036;2022-11-03T08:35:58;99585.59;;;-0.08;68.88
72798;BME280;61084;55.816;37.036;2022-11-03T08:38:24;99590.72;;;-0.01;68.88
72798;BME280;61084;55.816;37.036;2022-11-03T08:40:50;99590.66;;;0.03;68.83
72798;BME280;61084;55.816;37.036;2022-11-03T08:43:16;99593.25;;;0.03;68.96
72798;BME280;61084;55.816;37.036;2022-11-03T08:45:41;99588.09;;;0.04;68.53
72798;BME280;61084;55.816;37.036;2022-11-03T08:48:07;99590.69;;;0.04;68.34
72798;BME280;61084;55.816;37.036;2022-11-03T08:50:33;99592.31;;;0.13;68.65
72798;BME280;61084;55.816;37.036;2022-11-03T08:52:59;99591.44;;;0.17;68.81
72798;BME280;61084;55.816;37.036;2022-11-03T08:55:25;99585.34;;;0.24;68.70
72798;BME280;61084;55.816;37.036;2022-11-03T08:57:51;99593.88;;;0.29;68.74
72798;BME280;61084;55.816;37.036;2022-11-03T09:00:17;99590.41;;;0.33;68.29
72798;BME280;61084;55.816;37.036;2022-11-03T09:02:43;99579.25;;;0.31;67.92
72798;BME280;61084;55.816;37.036;2022-11-03T09:05:10;99581.00;;;0.27;68.09
72798;BME280;61084;55.816;37.036;2022-11-03T09:07:40;99581.94;;;0.20;68.23
72798;BME280;61084;55.816;37.036;2022-11-03T09:10:08;99585.38;;;0.21;68.06
72798;BME280;61084;55.816;37.036;2022-11-03T09:12:36;99584.50;;;0.22;68.52
72798;BME280;61084;55.816;37.036;2022-11-03T09:15:03;99581.03;;;0.24;67.98
72798;BME280;61084;55.816;37.036;2022-11-03T09:17:29;99585.34;;;0.25;67.99
72798;BME280;61084;55.816;37.036;2022-11-03T09:19:55;99584.47;;;0.25;68.47
72798;BME280;61084;55.816;37.036;2022-11-03T09:22:21;99588.78;;;0.24;68.03
72798;BME280;61084;55.816;37.036;2022-11-03T09:24:47;99588.81;;;0.18;68.15
72798;BME280;61084;55.816;37.036;2022-11-03T09:27:13;99586.22;;;0.23;68.22
72798;BME280;61084;55.816;37.036;2022-11-03T09:29:39;99587.03;;;0.26;68.11
72798;BME280;61084;55.816;37.036;2022-11-03T09:32:05;99592.13;;;0.34;68.23
72798;BME280;61084;55.816;37.036;2022-11-03T09:34:31;99584.34;;;0.38;68.11
72798;BME280;61084;55.816;37.036;2022-11-03T09:36:57;99584.31;;;0.40;68.46
72798;BME280;61084;55.816;37.036;2022-11-03T09:39:23;99581.78;;;0.35;68.40
72798;BME280;61084;55.816;37.036;2022-11-03T09:41:49;99583.47;;;0.41;68.32
72798;BME280;61084;55.816;37.036;2022-11-03T09:44:15;99585.16;;;0.45;67.89
72798;BME280;61084;55.816;37.036;2022-11-03T09:46:42;99590.28;;;0.49;68.05
72798;BME280;61084;55.816;37.036;2022-11-03T09:49:12;99585.91;;;0.53;68.05
72798;BME280;61084;55.816;37.036;2022-11-03T09:51:39;99584.19;;;0.55;67.90
72798;BME280;61084;55.816;37.036;2022-11-03T09:54:06;99594.50;;;0.55;67.84
72798;BME280;61084;55.816;37.036;2022-11-03T09:56:34;99589.34;;;0.56;68.29
72798;BME280;61084;55.816;37.036;2022-11-03T09:59:00;99584.19;;;0.56;68.05
72798;BME280;61084;55.816;37.036;2022-11-03T10:01:26;99589.28;;;0.61;68.08
72798;BME280;61084;55.816;37.036;2022-11-03T10:03:56;99589.31;;;0.58;67.75
72798;BME280;61084;55.816;37.036;2022-11-03T10:06:23;99589.34;;;0.56;68.05
72798;BME280;61084;55.816;37.036;2022-11-03T10:08:49;99587.63;;;0.55;68.04
72798;BME280;61084;55.816;37.036;2022-11-03T10:11:15;99588.47;;;0.57;68.26
72798;BME280;61084;55.816;37.036;2022-11-03T10:13:45;99587.59;;;0.60;68.42
72798;BME280;61084;55.816;37.036;2022-11-03T10:16:15;99590.06;;;0.67;68.13
72798;BME280;61084;55.816;37.036;2022-11-03T10:18:42;99585.75;;;0.68;68.18
72798;BME280;61084;55.816;37.036;2022-11-03T10:21:14;99584.91;;;0.67;67.80
72798;BME280;61084;55.816;37.036;2022-11-03T10:23:42;99584.06;;;0.65;67.96
72798;BME280;61084;55.816;37.036;2022-11-03T10:26:10;99584.94;;;0.66;68.23
72798;BME280;61084;55.816;37.036;2022-11-03T10:28:37;99584.03;;;0.70;68.08
72798;BME280;61084;55.816;37.036;2022-11-03T10:31:20;99593.44;;;0.75;67.76
72798;BME280;61084;55.816;37.036;2022-11-03T10:33:51;99577.13;;;0.73;67.69
72798;BME280;61084;55.816;37.036;2022-11-03T10:38:43;99576.38;;;0.61;68.24
72798;BME280;61084;55.816;37.036;2022-11-03T10:41:15;99581.53;;;0.61;68.11
72798;BME280;61084;55.816;37.036;2022-11-03T10:43:42;99585.06;;;0.52;67.89
72798;BME280;61084;55.816;37.036;2022-11-03T10:48:39;99582.59;;;0.42;67.80
72798;BME280;61084;55.816;37.036;2022-11-03T10:51:09;99588.59;;;0.44;68.17
72798;BME280;61084;55.816;37.036;2022-11-03T10:53:36;99582.56;;;0.45;68.20
72798;BME280;61084;55.816;37.036;2022-11-03T10:56:02;99579.97;;;0.48;68.08
72798;BME280;61084;55.816;37.036;2022-11-03T10:58:29;99583.34;;;0.53;67.95
72798;BME280;61084;55.816;37.036;2022-11-03T11:00:55;99584.09;;;0.61;68.24
72798;BME280;61084;55.816;37.036;2022-11-03T11:03:21;99579.75;;;0.69;68.25
72798;BME280;61084;55.816;37.036;2022-11-03T11:05:47;99578.81;;;0.76;67.84
72798;BME280;61084;55.816;37.036;2022-11-03T11:08:19;99580.47;;;0.82;68.11
72798;BME280;61084;55.816;37.036;2022-11-03T11:10:46;99580.44;;;0.85;68.39
72798;BME280;61084;55.816;37.036;2022-11-03T11:15:58;99584.03;;;0.70;67.70
72798;BME280;61084;55.816;37.036;2022-11-03T11:20:59;99578.00;;;0.68;68.16
72798;BME280;61084;55.816;37.036;2022-11-03T11:28:39;99581.28;;;0.85;68.18
72798;BME280;61084;55.816;37.036;2022-11-03T11:42:10;99574.34;;;0.87;67.92
72798;BME280;61084;55.816;37.036;2022-11-03T11:47:29;99571.84;;;0.83;67.76
72798;BME280;61084;55.816;37.036;2022-11-03T11:58:05;99573.63;;;0.77;67.92
72798;BME280;61084;55.816;37.036;2022-11-03T12:00:36;99571.91;;;0.78;68.29
72798;BME280;61084;55.816;37.036;2022-11-03T12:03:04;99572.78;;;0.75;67.97
72798;BME280;61084;55.816;37.036;2022-11-03T12:05:32;99567.63;;;0.75;67.70
72798;BME280;61084;55.816;37.036;2022-11-03T12:07:59;99575.34;;;0.77;68.09
72798;BME280;61084;55.816;37.036;2022-11-03T12:10:27;99567.69;;;0.69;68.21
72798;BME280;61084;55.816;37.036;2022-11-03T12:12:54;99565.19;;;0.60;68.00
72798;BME280;61084;55.816;37.036;2022-11-03T12:15:55;99570.31;;;0.65;68.04
72798;BME280;61084;55.816;37.036;2022-11-03T12:18:32;99578.06;;;0.65;68.21
72798;BME280;61084;55.816;37.036;2022-11-03T12:21:00;99572.91;;;0.65;68.06
72798;BME280;61084;55.816;37.036;2022-11-03T12:23:36;99578.06;;;0.63;68.12
72798;BME280;61084;55.816;37.036;2022-11-03T12:26:03;99578.91;;;0.67;67.81
72798;BME280;61084;55.816;37.036;2022-11-03T12:28:31;99578.06;;;0.65;68.05
72798;BME280;61084;55.816;37.036;2022-11-03T12:30:58;99577.19;;;0.66;67.89
72798;BME280;61084;55.816;37.036;2022-11-03T12:33:25;99584.03;;;0.68;68.22
72798;BME280;61084;55.816;37.036;2022-11-03T12:35:52;99579.69;;;0.72;68.00
72798;BME280;61084;55.816;37.036;2022-11-03T12:38:18;99571.94;;;0.73;67.86
72798;BME280;61084;55.816;37.036;2022-11-03T12:40:44;99578.91;;;0.65;67.56
72798;BME280;61084;55.816;37.036;2022-11-03T12:43:10;99576.41;;;0.58;67.69
72798;BME280;61084;55.816;37.036;2022-11-03T12:45:35;99578.13;;;0.57;68.28
72798;BME280;61084;55.816;37.036;2022-11-03T12:48:01;99578.22;;;0.50;68.13
72798;BME280;61084;55.816;37.036;2022-11-03T12:50:27;99570.59;;;0.36;68.15
72798;BME280;61084;55.816;37.036;2022-11-03T12:52:53;99581.72;;;0.43;68.21
72798;BME280;61084;55.816;37.036;2022-11-03T12:55:19;99579.97;;;0.46;68.17
72798;BME280;61084;55.816;37.036;2022-11-03T12:57:44;99578.25;;;0.47;68.36
72798;BME280;61084;55.816;37.036;2022-11-03T13:00:11;99585.16;;;0.45;68.19
72798;BME280;61084;55.816;37.036;2022-11-03T13:02:37;99574.84;;;0.42;68.12
72798;BME280;61084;55.816;37.036;2022-11-03T13:05:04;99574.81;;;0.45;68.32
72798;BME280;61084;55.816;37.036;2022-11-03T13:07:30;99577.44;;;0.40;68.12
72798;BME280;61084;55.816;37.036;2022-11-03T13:09:56;99571.38;;;0.47;68.18
72798;BME280;61084;55.816;37.036;2022-11-03T13:12:22;99578.19;;;0.51;68.53
72798;BME280;61084;55.816;37.036;2022-11-03T13:15:02;99578.19;;;0.54;68.33
72798;BME280;61084;55.816;37.036;2022-11-03T13:17:29;99580.69;;;0.59;68.26
72798;BME280;61084;55.816;37.036;2022-11-03T13:19:55;99578.97;;;0.59;68.75
72798;BME280;61084;55.816;37.036;2022-11-03T13:22:20;99588.41;;;0.65;68.61
72798;BME280;61084;55.816;37.036;2022-11-03T13:24:46;99591.81;;;0.65;68.54
72798;BME280;61084;55.816;37.036;2022-11-03T13:27:12;99587.59;;;0.60;67.94
72798;BME280;61084;55.816;37.036;2022-11-03T13:29:38;99593.66;;;0.56;68.30
72798;BME280;61084;55.816;37.036;2022-11-03T13:32:04;99590.22;;;0.54;68.20
72798;BME280;61084;55.816;37.036;2022-11-03T13:34:30;99578.22;;;0.50;67.88
72798;BME280;61084;55.816;37.036;2022-11-03T13:36:56;99584.25;;;0.49;68.39
72798;BME280;61084;55.816;37.036;2022-11-03T13:39:23;99585.97;;;0.48;67.92
72798;BME280;61084;55.816;37.036;2022-11-03T13:41:49;99589.44;;;0.46;68.02
72798;BME280;61084;55.816;37.036;2022-11-03T13:44:14;99586.09;;;0.36;68.06
72798;BME280;61084;55.816;37.036;2022-11-03T13:46:40;99587.81;;;0.33;68.43
72798;BME280;61084;55.816;37.036;2022-11-03T13:49:06;99587.03;;;0.28;68.80
72798;BME280;61084;55.816;37.036;2022-11-03T13:51:32;99593.00;;;0.31;68.93
72798;BME280;61084;55.816;37.036;2022-11-03T13:53:58;99584.38;;;0.37;68.61
72798;BME280;61084;55.816;37.036;2022-11-03T13:56:24;99576.56;;;0.43;68.70
72798;BME280;61084;55.816;37.036;2022-11-03T13:58:49;99584.31;;;0.40;68.50
72798;BME280;61084;55.816;37.036;2022-11-03T14:01:16;99586.91;;;0.40;68.57
72798;BME280;61084;55.816;37.036;2022-11-03T14:03:41;99588.59;;;0.45;68.64
72798;BME280;61084;55.816;37.036;2022-11-03T14:06:07;99586.03;;;0.39;68.96
72798;BME280;61084;55.816;37.036;2022-11-03T14:08:33;99582.59;;;0.42;68.58
72798;BME280;61084;55.816;37.036;2022-11-03T14:10:59;99584.31;;;0.43;68.69
72798;BME280;61084;55.816;37.036;2022-11-03T14:14:03;99591.22;;;0.41;68.91
72798;BME280;61084;55.816;37.036;2022-11-03T14:16:28;99591.19;;;0.42;68.66
72798;BME280;61084;55.816;37.036;2022-11-03T14:18:54;99592.91;;;0.45;68.83
72798;BME280;61084;55.816;37.036;2022-11-03T14:21:20;99594.56;;;0.52;68.96
72798;BME280;61084;55.816;37.036;2022-11-03T14:23:46;99585.88;;;0.57;68.55
72798;BME280;61084;55.816;37.036;2022-11-03T14:26:11;99595.38;;;0.55;68.77
72798;BME280;61084;55.816;37.036;2022-11-03T14:28:37;99593.63;;;0.57;68.85
72798;BME280;61084;55.816;37.036;2022-11-03T14:31:03;99583.28;;;0.57;68.73
72798;BME280;61084;55.816;37.036;2022-11-03T14:33:31;99593.63;;;0.57;68.73